sensor_id;sensor_type;location;lat;lon;timestamp;P1;durP1;ratioP1;P2;durP2;ratioP2
16766;SDS011;8501;49.926;8.404;2023-05-10T00:00:12;2.67;;;0.70;;
16766;SDS011;8501;49.926;8.404;2023-05-10T00:02:38;0.70;;;0.70;;
16766;SDS011;8501;49.926;8.404;2023-05-10T00:05:04;0.70;;;0.70;;
16766;SDS011;8501;49.926;8.404;2023-05-10T00:07:30;0.90;;;0.70;;
16766;SDS011;8501;49.926;8.404;2023-05-10T00:09:56;1.53;;;0.70;;
16766;SDS011;8501;49.926;8.404;2023-05-10T00:12:21;1.63;;;0.63;;
16766;SDS011;8501;49.926;8.404;2023-05-10T00:14:47;0.77;;;0.60;;
16766;SDS011;8501;49.926;8.404;2023-05-10T00:17:12;4.10;;;0.73;;
16766;SDS011;8501;49.926;8.404;2023-05-10T00:19:39;4.13;;;0.73;;
16766;SDS011;8501;49.926;8.404;2023-05-10T00:22:04;0.70;;;0.70;;
16766;SDS011;8501;49.926;8.404;2023-05-10T00:24:30;0.60;;;0.60;;
16766;SDS011;8501;49.926;8.404;2023-05-10T00:26:55;1.23;;;0.80;;
16766;SDS011;8501;49.926;8.404;2023-05-10T00:29:21;0.80;;;0.63;;
16766;SDS011;8501;49.926;8.404;2023-05-10T00:31:46;0.97;;;0.60;;
16766;SDS011;8501;49.926;8.404;2023-05-10T00:34:12;0.93;;;0.70;;
16766;SDS011;8501;49.926;8.404;2023-05-10T00:36:37;1.00;;;0.63;;
16766;SDS011;8501;49.926;8.404;2023-05-10T00:39:03;1.30;;;0.63;;
16766;SDS011;8501;49.926;8.404;2023-05-10T00:41:29;1.80;;;0.77;;
16766;SDS011;8501;49.926;8.404;2023-05-10T00:43:57;4.60;;;0.70;;
16766;SDS011;8501;49.926;8.404;2023-05-10T00:46:23;0.90;;;0.63;;
16766;SDS011;8501;49.926;8.404;2023-05-10T00:48:49;0.60;;;0.60;;
16766;SDS011;8501;49.926;8.404;2023-05-10T00:51:15;2.20;;;0.63;;
16766;SDS011;8501;49.926;8.404;2023-05-10T00:53:40;1.47;;;0.80;;
16766;SDS011;8501;49.926;8.404;2023-05-10T00:56:06;0.83;;;0.70;;
16766;SDS011;8501;49.926;8.404;2023-05-10T00:58:32;0.73;;;0.63;;
16766;SDS011;8501;49.926;8.404;2023-05-10T01:00:58;0.90;;;0.70;;
16766;SDS011;8501;49.926;8.404;2023-05-10T01:03:24;0.70;;;0.70;;
16766;SDS011;8501;49.926;8.404;2023-05-10T01:05:51;0.80;;;0.67;;
16766;SDS011;8501;49.926;8.404;2023-05-10T01:08:16;1.57;;;0.80;;
16766;SDS011;8501;49.926;8.404;2023-05-10T01:10:42;0.77;;;0.70;;
16766;SDS011;8501;49.926;8.404;2023-05-10T01:13:08;1.30;;;0.60;;
16766;SDS011;8501;49.926;8.404;2023-05-10T01:15:34;0.80;;;0.80;;
16766;SDS011;8501;49.926;8.404;2023-05-10T01:18:01;2.03;;;0.90;;
16766;SDS011;8501;49.926;8.404;2023-05-10T01:20:28;0.80;;;0.60;;
16766;SDS011;8501;49.926;8.404;2023-05-10T01:26:06;1.80;;;0.70;;
16766;SDS011;8501;49.926;8.404;2023-05-10T01:28:58;1.03;;;0.60;;
16766;SDS011;8501;49.926;8.404;2023-05-10T01:32:01;3.50;;;0.70;;
16766;SDS011;8501;49.926;8.404;2023-05-10T01:34:42;2.97;;;0.90;;
16766;SDS011;8501;49.926;8.404;2023-05-10T01:37:36;0.67;;;0.63;;
16766;SDS011;8501;49.926;8.404;2023-05-10T01:40:16;2.10;;;0.67;;
16766;SDS011;8501;49.926;8.404;2023-05-10T01:42:56;0.90;;;0.60;;
16766;SDS011;8501;49.926;8.404;2023-05-10T01:45:29;0.90;;;0.70;;
16766;SDS011;8501;49.926;8.404;2023-05-10T01:48:10;1.50;;;0.60;;
16766;SDS011;8501;49.926;8.404;2023-05-10T01:50:38;0.90;;;0.70;;
16766;SDS011;8501;49.926;8.404;2023-05-10T01:53:07;0.83;;;0.70;;
16766;SDS011;8501;49.926;8.404;2023-05-10T01:55:35;1.07;;;0.70;;
16766;SDS011;8501;49.926;8.404;2023-05-10T01:58:08;1.50;;;0.70;;
16766;SDS011;8501;49.926;8.404;2023-05-10T02:00:35;0.97;;;0.70;;
16766;SDS011;8501;49.926;8.404;2023-05-10T02:03:07;1.77;;;0.80;;
16766;SDS011;8501;49.926;8.404;2023-05-10T02:05:34;0.70;;;0.70;;
16766;SDS011;8501;49.926;8.404;2023-05-10T02:08:01;0.97;;;0.70;;
16766;SDS011;8501;49.926;8.404;2023-05-10T02:10:30;0.70;;;0.70;;
16766;SDS011;8501;49.926;8.404;2023-05-10T02:12:55;1.53;;;0.80;;
16766;SDS011;8501;49.926;8.404;2023-05-10T02:15:24;1.53;;;0.93;;
16766;SDS011;8501;49.926;8.404;2023-05-10T02:17:51;1.00;;;0.90;;
16766;SDS011;8501;49.926;8.404;2023-05-10T02:20:19;1.00;;;0.80;;
16766;SDS011;8501;49.926;8.404;2023-05-10T02:22:47;0.93;;;0.80;;
16766;SDS011;8501;49.926;8.404;2023-05-10T02:25:15;1.03;;;0.80;;
16766;SDS011;8501;49.926;8.404;2023-05-10T02:27:42;3.50;;;1.00;;
16766;SDS011;8501;49.926;8.404;2023-05-10T02:30:09;1.10;;;0.90;;
16766;SDS011;8501;49.926;8.404;2023-05-10T02:32:36;1.00;;;0.90;;
16766;SDS011;8501;49.926;8.404;2023-05-10T02:35:02;0.77;;;0.77;;
16766;SDS011;8501;49.926;8.404;2023-05-10T02:37:29;1.57;;;1.00;;
16766;SDS011;8501;49.926;8.404;2023-05-10T02:39:55;1.40;;;1.00;;
16766;SDS011;8501;49.926;8.404;2023-05-10T02:42:27;0.80;;;0.80;;
16766;SDS011;8501;49.926;8.404;2023-05-10T02:45:03;1.10;;;1.00;;
16766;SDS011;8501;49.926;8.404;2023-05-10T02:47:35;1.10;;;1.00;;
16766;SDS011;8501;49.926;8.404;2023-05-10T02:50:01;0.90;;;0.90;;
16766;SDS011;8501;49.926;8.404;2023-05-10T02:52:28;1.00;;;0.90;;
16766;SDS011;8501;49.926;8.404;2023-05-10T02:55:02;0.90;;;0.90;;
16766;SDS011;8501;49.926;8.404;2023-05-10T02:57:32;1.60;;;1.07;;
16766;SDS011;8501;49.926;8.404;2023-05-10T02:59:59;2.17;;;0.90;;
16766;SDS011;8501;49.926;8.404;2023-05-10T03:02:25;0.98;;;0.90;;
16766;SDS011;8501;49.926;8.404;2023-05-10T03:04:51;2.13;;;1.00;;
16766;SDS011;8501;49.926;8.404;2023-05-10T03:07:17;3.67;;;1.10;;
16766;SDS011;8501;49.926;8.404;2023-05-10T03:09:46;1.20;;;1.10;;
16766;SDS011;8501;49.926;8.404;2023-05-10T03:17:29;1.77;;;1.00;;
16766;SDS011;8501;49.926;8.404;2023-05-10T03:20:01;1.30;;;0.90;;
16766;SDS011;8501;49.926;8.404;2023-05-10T03:22:34;1.07;;;0.97;;
16766;SDS011;8501;49.926;8.404;2023-05-10T03:25:12;1.10;;;1.00;;
16766;SDS011;8501;49.926;8.404;2023-05-10T03:27:41;2.20;;;1.17;;
16766;SDS011;8501;49.926;8.404;2023-05-10T03:30:10;3.20;;;1.10;;
16766;SDS011;8501;49.926;8.404;2023-05-10T03:32:37;1.93;;;1.00;;
16766;SDS011;8501;49.926;8.404;2023-05-10T03:35:09;1.33;;;1.10;;
16766;SDS011;8501;49.926;8.404;2023-05-10T03:37:36;0.90;;;0.90;;
16766;SDS011;8501;49.926;8.404;2023-05-10T03:40:02;1.20;;;1.10;;
16766;SDS011;8501;49.926;8.404;2023-05-10T03:42:28;2.67;;;1.20;;
16766;SDS011;8501;49.926;8.404;2023-05-10T03:44:54;1.83;;;1.50;;
16766;SDS011;8501;49.926;8.404;2023-05-10T03:47:19;2.90;;;1.20;;
16766;SDS011;8501;49.926;8.404;2023-05-10T03:49:45;3.10;;;1.43;;
16766;SDS011;8501;49.926;8.404;2023-05-10T03:52:10;1.50;;;1.40;;
16766;SDS011;8501;49.926;8.404;2023-05-10T03:54:36;2.00;;;1.45;;
16766;SDS011;8501;49.926;8.404;2023-05-10T03:57:02;1.60;;;1.33;;
16766;SDS011;8501;49.926;8.404;2023-05-10T03:59:28;1.45;;;1.33;;
16766;SDS011;8501;49.926;8.404;2023-05-10T04:01:53;1.27;;;1.17;;
16766;SDS011;8501;49.926;8.404;2023-05-10T04:04:19;4.87;;;1.50;;
16766;SDS011;8501;49.926;8.404;2023-05-10T04:06:46;2.13;;;1.20;;
16766;SDS011;8501;49.926;8.404;2023-05-10T04:09:12;1.37;;;1.27;;
16766;SDS011;8501;49.926;8.404;2023-05-10T04:11:37;2.53;;;1.40;;
16766;SDS011;8501;49.926;8.404;2023-05-10T04:14:03;2.97;;;1.60;;
16766;SDS011;8501;49.926;8.404;2023-05-10T04:16:28;2.57;;;1.80;;
16766;SDS011;8501;49.926;8.404;2023-05-10T04:18:54;2.50;;;1.63;;
16766;SDS011;8501;49.926;8.404;2023-05-10T04:21:19;2.50;;;1.50;;
16766;SDS011;8501;49.926;8.404;2023-05-10T04:23:45;4.37;;;1.77;;
16766;SDS011;8501;49.926;8.404;2023-05-10T04:26:10;3.50;;;1.60;;
16766;SDS011;8501;49.926;8.404;2023-05-10T04:28:36;2.83;;;1.90;;
16766;SDS011;8501;49.926;8.404;2023-05-10T04:31:03;2.23;;;1.60;;
16766;SDS011;8501;49.926;8.404;2023-05-10T04:33:30;2.23;;;1.70;;
16766;SDS011;8501;49.926;8.404;2023-05-10T04:36:00;3.07;;;1.80;;
16766;SDS011;8501;49.926;8.404;2023-05-10T04:38:26;3.20;;;1.77;;
16766;SDS011;8501;49.926;8.404;2023-05-10T04:40:52;2.20;;;1.60;;
16766;SDS011;8501;49.926;8.404;2023-05-10T04:43:18;1.90;;;1.70;;
16766;SDS011;8501;49.926;8.404;2023-05-10T04:45:44;2.10;;;1.90;;
16766;SDS011;8501;49.926;8.404;2023-05-10T04:48:09;2.53;;;2.00;;
16766;SDS011;8501;49.926;8.404;2023-05-10T04:50:35;4.37;;;1.87;;
16766;SDS011;8501;49.926;8.404;2023-05-10T04:53:00;3.10;;;2.10;;
16766;SDS011;8501;49.926;8.404;2023-05-10T04:55:26;4.40;;;2.10;;
16766;SDS011;8501;49.926;8.404;2023-05-10T04:57:52;2.00;;;1.80;;
16766;SDS011;8501;49.926;8.404;2023-05-10T05:00:20;2.87;;;2.17;;
16766;SDS011;8501;49.926;8.404;2023-05-10T05:02:45;3.17;;;2.00;;
16766;SDS011;8501;49.926;8.404;2023-05-10T05:05:11;3.83;;;2.20;;
16766;SDS011;8501;49.926;8.404;2023-05-10T05:07:37;3.50;;;2.50;;
16766;SDS011;8501;49.926;8.404;2023-05-10T05:10:06;4.83;;;2.70;;
16766;SDS011;8501;49.926;8.404;2023-05-10T05:12:34;4.93;;;2.53;;
16766;SDS011;8501;49.926;8.404;2023-05-10T05:15:00;3.60;;;2.40;;
16766;SDS011;8501;49.926;8.404;2023-05-10T05:17:26;3.17;;;2.67;;
16766;SDS011;8501;49.926;8.404;2023-05-10T05:19:51;3.90;;;2.50;;
16766;SDS011;8501;49.926;8.404;2023-05-10T05:22:17;4.47;;;3.10;;
16766;SDS011;8501;49.926;8.404;2023-05-10T05:24:44;3.83;;;2.60;;
16766;SDS011;8501;49.926;8.404;2023-05-10T05:27:10;4.40;;;2.60;;
16766;SDS011;8501;49.926;8.404;2023-05-10T05:29:36;6.50;;;2.60;;
16766;SDS011;8501;49.926;8.404;2023-05-10T05:32:01;3.73;;;2.60;;
16766;SDS011;8501;49.926;8.404;2023-05-10T05:34:27;5.23;;;2.73;;
16766;SDS011;8501;49.926;8.404;2023-05-10T05:36:52;7.73;;;2.60;;
16766;SDS011;8501;49.926;8.404;2023-05-10T05:39:18;3.33;;;2.67;;
16766;SDS011;8501;49.926;8.404;2023-05-10T05:41:44;5.77;;;2.57;;
16766;SDS011;8501;49.926;8.404;2023-05-10T05:44:09;5.17;;;2.57;;
16766;SDS011;8501;49.926;8.404;2023-05-10T05:46:35;8.20;;;2.67;;
16766;SDS011;8501;49.926;8.404;2023-05-10T05:49:00;4.20;;;2.47;;
16766;SDS011;8501;49.926;8.404;2023-05-10T05:51:26;4.63;;;2.20;;
16766;SDS011;8501;49.926;8.404;2023-05-10T05:53:51;4.57;;;2.30;;
16766;SDS011;8501;49.926;8.404;2023-05-10T05:56:17;4.17;;;2.67;;
16766;SDS011;8501;49.926;8.404;2023-05-10T05:58:49;3.90;;;2.40;;
16766;SDS011;8501;49.926;8.404;2023-05-10T06:01:17;4.17;;;2.80;;
16766;SDS011;8501;49.926;8.404;2023-05-10T06:03:42;4.20;;;2.60;;
16766;SDS011;8501;49.926;8.404;2023-05-10T06:06:08;5.33;;;2.57;;
16766;SDS011;8501;49.926;8.404;2023-05-10T06:08:33;5.17;;;2.70;;
16766;SDS011;8501;49.926;8.404;2023-05-10T06:10:59;3.67;;;2.17;;
16766;SDS011;8501;49.926;8.404;2023-05-10T06:13:25;4.07;;;2.40;;
16766;SDS011;8501;49.926;8.404;2023-05-10T06:15:56;4.87;;;2.50;;
16766;SDS011;8501;49.926;8.404;2023-05-10T06:18:25;4.00;;;2.70;;
16766;SDS011;8501;49.926;8.404;2023-05-10T06:20:50;5.03;;;2.60;;
16766;SDS011;8501;49.926;8.404;2023-05-10T06:23:16;4.20;;;2.73;;
16766;SDS011;8501;49.926;8.404;2023-05-10T06:25:42;3.63;;;2.80;;
16766;SDS011;8501;49.926;8.404;2023-05-10T06:28:07;3.53;;;2.63;;
16766;SDS011;8501;49.926;8.404;2023-05-10T06:30:33;4.13;;;3.00;;
16766;SDS011;8501;49.926;8.404;2023-05-10T06:33:00;5.97;;;2.83;;
16766;SDS011;8501;49.926;8.404;2023-05-10T06:35:26;5.57;;;2.67;;
16766;SDS011;8501;49.926;8.404;2023-05-10T06:37:51;6.50;;;3.20;;
16766;SDS011;8501;49.926;8.404;2023-05-10T06:40:17;5.37;;;3.00;;
16766;SDS011;8501;49.926;8.404;2023-05-10T06:42:43;4.37;;;2.90;;
16766;SDS011;8501;49.926;8.404;2023-05-10T06:45:10;5.20;;;3.37;;
16766;SDS011;8501;49.926;8.404;2023-05-10T06:47:36;6.23;;;3.03;;
16766;SDS011;8501;49.926;8.404;2023-05-10T06:50:01;5.13;;;2.70;;
16766;SDS011;8501;49.926;8.404;2023-05-10T06:52:27;3.77;;;2.63;;
16766;SDS011;8501;49.926;8.404;2023-05-10T06:54:53;4.97;;;2.70;;
16766;SDS011;8501;49.926;8.404;2023-05-10T06:57:19;5.80;;;2.77;;
16766;SDS011;8501;49.926;8.404;2023-05-10T06:59:45;4.70;;;2.87;;
16766;SDS011;8501;49.926;8.404;2023-05-10T07:02:11;5.47;;;2.90;;
16766;SDS011;8501;49.926;8.404;2023-05-10T07:04:36;7.05;;;2.90;;
16766;SDS011;8501;49.926;8.404;2023-05-10T07:07:02;4.13;;;2.90;;
16766;SDS011;8501;49.926;8.404;2023-05-10T07:09:27;3.97;;;2.90;;
16766;SDS011;8501;49.926;8.404;2023-05-10T07:11:53;7.23;;;3.20;;
16766;SDS011;8501;49.926;8.404;2023-05-10T07:14:18;6.05;;;2.92;;
16766;SDS011;8501;49.926;8.404;2023-05-10T07:16:44;6.82;;;3.00;;
16766;SDS011;8501;49.926;8.404;2023-05-10T07:19:09;6.83;;;2.93;;
16766;SDS011;8501;49.926;8.404;2023-05-10T07:21:35;3.88;;;3.03;;
16766;SDS011;8501;49.926;8.404;2023-05-10T07:24:01;7.85;;;3.30;;
16766;SDS011;8501;49.926;8.404;2023-05-10T07:26:26;7.65;;;2.90;;
16766;SDS011;8501;49.926;8.404;2023-05-10T07:28:52;4.57;;;2.80;;
16766;SDS011;8501;49.926;8.404;2023-05-10T07:31:17;6.23;;;2.97;;
16766;SDS011;8501;49.926;8.404;2023-05-10T07:33:43;6.47;;;3.00;;
16766;SDS011;8501;49.926;8.404;2023-05-10T07:36:08;3.50;;;2.72;;
16766;SDS011;8501;49.926;8.404;2023-05-10T07:38:34;5.60;;;3.25;;
16766;SDS011;8501;49.926;8.404;2023-05-10T07:40:59;4.07;;;2.90;;
16766;SDS011;8501;49.926;8.404;2023-05-10T07:43:25;4.25;;;3.20;;
16766;SDS011;8501;49.926;8.404;2023-05-10T07:45:50;6.60;;;3.28;;
16766;SDS011;8501;49.926;8.404;2023-05-10T07:48:16;4.22;;;2.80;;
16766;SDS011;8501;49.926;8.404;2023-05-10T07:50:41;5.07;;;2.83;;
16766;SDS011;8501;49.926;8.404;2023-05-10T07:53:07;7.20;;;2.83;;
16766;SDS011;8501;49.926;8.404;2023-05-10T07:55:32;3.88;;;2.75;;
16766;SDS011;8501;49.926;8.404;2023-05-10T07:57:58;5.32;;;2.95;;
16766;SDS011;8501;49.926;8.404;2023-05-10T08:00:26;5.10;;;2.78;;
16766;SDS011;8501;49.926;8.404;2023-05-10T08:02:51;6.22;;;3.03;;
16766;SDS011;8501;49.926;8.404;2023-05-10T08:05:17;6.43;;;3.45;;
16766;SDS011;8501;49.926;8.404;2023-05-10T08:07:43;4.05;;;2.80;;
16766;SDS011;8501;49.926;8.404;2023-05-10T08:10:09;3.58;;;2.35;;
16766;SDS011;8501;49.926;8.404;2023-05-10T08:12:35;4.70;;;2.97;;
16766;SDS011;8501;49.926;8.404;2023-05-10T08:15:02;3.90;;;3.10;;
16766;SDS011;8501;49.926;8.404;2023-05-10T08:17:28;3.05;;;2.60;;
16766;SDS011;8501;49.926;8.404;2023-05-10T08:19:53;5.28;;;2.65;;
16766;SDS011;8501;49.926;8.404;2023-05-10T08:22:19;3.55;;;2.60;;
16766;SDS011;8501;49.926;8.404;2023-05-10T08:24:44;3.67;;;2.38;;
16766;SDS011;8501;49.926;8.404;2023-05-10T08:27:10;3.03;;;2.30;;
16766;SDS011;8501;49.926;8.404;2023-05-10T08:29:35;3.03;;;2.45;;
16766;SDS011;8501;49.926;8.404;2023-05-10T08:32:02;2.47;;;2.28;;
16766;SDS011;8501;49.926;8.404;2023-05-10T08:34:27;4.55;;;2.45;;
16766;SDS011;8501;49.926;8.404;2023-05-10T08:36:53;3.35;;;2.72;;
16766;SDS011;8501;49.926;8.404;2023-05-10T08:39:18;3.58;;;2.60;;
16766;SDS011;8501;49.926;8.404;2023-05-10T08:41:44;4.60;;;3.08;;
16766;SDS011;8501;49.926;8.404;2023-05-10T08:44:13;4.15;;;2.80;;
16766;SDS011;8501;49.926;8.404;2023-05-10T08:46:40;4.82;;;2.55;;
16766;SDS011;8501;49.926;8.404;2023-05-10T08:49:10;3.35;;;2.75;;
16766;SDS011;8501;49.926;8.404;2023-05-10T08:51:42;4.95;;;2.78;;
16766;SDS011;8501;49.926;8.404;2023-05-10T08:54:12;4.78;;;2.90;;
16766;SDS011;8501;49.926;8.404;2023-05-10T08:56:37;3.03;;;2.72;;
16766;SDS011;8501;49.926;8.404;2023-05-10T08:59:03;5.88;;;3.10;;
16766;SDS011;8501;49.926;8.404;2023-05-10T09:01:29;5.05;;;3.42;;
16766;SDS011;8501;49.926;8.404;2023-05-10T09:03:56;6.25;;;3.60;;
16766;SDS011;8501;49.926;8.404;2023-05-10T09:06:23;6.70;;;3.55;;
16766;SDS011;8501;49.926;8.404;2023-05-10T09:08:49;4.40;;;3.42;;
16766;SDS011;8501;49.926;8.404;2023-05-10T09:11:15;3.40;;;2.35;;
16766;SDS011;8501;49.926;8.404;2023-05-10T09:13:41;2.45;;;1.80;;
16766;SDS011;8501;49.926;8.404;2023-05-10T09:16:08;2.03;;;1.83;;
16766;SDS011;8501;49.926;8.404;2023-05-10T09:18:34;2.53;;;1.80;;
16766;SDS011;8501;49.926;8.404;2023-05-10T09:20:59;2.00;;;1.77;;
16766;SDS011;8501;49.926;8.404;2023-05-10T09:23:25;2.95;;;1.40;;
16766;SDS011;8501;49.926;8.404;2023-05-10T09:26:06;2.15;;;1.40;;
16766;SDS011;8501;49.926;8.404;2023-05-10T09:28:33;2.55;;;1.60;;
16766;SDS011;8501;49.926;8.404;2023-05-10T09:30:59;2.92;;;1.30;;
16766;SDS011;8501;49.926;8.404;2023-05-10T09:33:25;2.00;;;1.90;;
16766;SDS011;8501;49.926;8.404;2023-05-10T09:35:51;1.63;;;1.27;;
16766;SDS011;8501;49.926;8.404;2023-05-10T09:38:17;1.60;;;1.35;;
16766;SDS011;8501;49.926;8.404;2023-05-10T09:40:42;2.08;;;1.10;;
16766;SDS011;8501;49.926;8.404;2023-05-10T09:43:19;1.60;;;1.15;;
16766;SDS011;8501;49.926;8.404;2023-05-10T09:45:45;1.45;;;1.27;;
16766;SDS011;8501;49.926;8.404;2023-05-10T09:48:14;3.63;;;1.38;;
16766;SDS011;8501;49.926;8.404;2023-05-10T09:50:40;2.47;;;1.30;;
16766;SDS011;8501;49.926;8.404;2023-05-10T09:53:06;1.50;;;1.30;;
16766;SDS011;8501;49.926;8.404;2023-05-10T09:58:01;2.22;;;1.50;;
16766;SDS011;8501;49.926;8.404;2023-05-10T10:00:27;2.83;;;1.60;;
16766;SDS011;8501;49.926;8.404;2023-05-10T10:02:57;1.30;;;1.20;;
16766;SDS011;8501;49.926;8.404;2023-05-10T10:05:30;2.35;;;1.50;;
16766;SDS011;8501;49.926;8.404;2023-05-10T10:07:59;1.80;;;1.40;;
16766;SDS011;8501;49.926;8.404;2023-05-10T10:10:26;3.22;;;1.30;;
16766;SDS011;8501;49.926;8.404;2023-05-10T10:12:53;2.33;;;1.38;;
16766;SDS011;8501;49.926;8.404;2023-05-10T10:15:20;2.53;;;1.40;;
16766;SDS011;8501;49.926;8.404;2023-05-10T10:17:46;1.48;;;1.23;;
16766;SDS011;8501;49.926;8.404;2023-05-10T10:20:14;2.38;;;1.30;;
16766;SDS011;8501;49.926;8.404;2023-05-10T10:22:40;4.47;;;1.58;;
16766;SDS011;8501;49.926;8.404;2023-05-10T10:25:08;2.88;;;1.40;;
16766;SDS011;8501;49.926;8.404;2023-05-10T10:27:39;1.52;;;1.42;;
16766;SDS011;8501;49.926;8.404;2023-05-10T10:32:59;2.38;;;1.40;;
16766;SDS011;8501;49.926;8.404;2023-05-10T10:35:36;2.88;;;1.15;;
16766;SDS011;8501;49.926;8.404;2023-05-10T10:38:02;1.38;;;1.20;;
16766;SDS011;8501;49.926;8.404;2023-05-10T10:40:34;1.77;;;1.10;;
16766;SDS011;8501;49.926;8.404;2023-05-10T10:43:20;2.40;;;1.40;;
16766;SDS011;8501;49.926;8.404;2023-05-10T10:46:13;3.10;;;1.25;;
16766;SDS011;8501;49.926;8.404;2023-05-10T10:48:43;1.55;;;1.27;;
16766;SDS011;8501;49.926;8.404;2023-05-10T10:51:13;1.50;;;1.40;;
16766;SDS011;8501;49.926;8.404;2023-05-10T10:53:39;1.55;;;1.25;;
16766;SDS011;8501;49.926;8.404;2023-05-10T10:56:06;1.55;;;1.42;;
16766;SDS011;8501;49.926;8.404;2023-05-10T10:58:38;2.50;;;1.48;;
16766;SDS011;8501;49.926;8.404;2023-05-10T11:01:12;1.60;;;1.50;;
16766;SDS011;8501;49.926;8.404;2023-05-10T11:03:54;2.28;;;1.40;;
16766;SDS011;8501;49.926;8.404;2023-05-10T11:06:29;1.50;;;1.40;;
16766;SDS011;8501;49.926;8.404;2023-05-10T11:08:59;1.30;;;1.20;;
16766;SDS011;8501;49.926;8.404;2023-05-10T11:11:31;1.40;;;1.30;;
16766;SDS011;8501;49.926;8.404;2023-05-10T11:14:02;2.42;;;1.17;;
16766;SDS011;8501;49.926;8.404;2023-05-10T11:16:29;2.63;;;1.45;;
16766;SDS011;8501;49.926;8.404;2023-05-10T11:19:07;2.60;;;1.38;;
16766;SDS011;8501;49.926;8.404;2023-05-10T11:21:44;1.42;;;1.15;;
16766;SDS011;8501;49.926;8.404;2023-05-10T11:24:12;2.58;;;1.10;;
16766;SDS011;8501;49.926;8.404;2023-05-10T11:26:40;1.63;;;1.10;;
16766;SDS011;8501;49.926;8.404;2023-05-10T11:29:05;1.10;;;0.90;;
16766;SDS011;8501;49.926;8.404;2023-05-10T11:31:31;4.47;;;1.30;;
16766;SDS011;8501;49.926;8.404;2023-05-10T11:33:58;1.80;;;0.73;;
16766;SDS011;8501;49.926;8.404;2023-05-10T11:36:27;1.67;;;0.80;;
16766;SDS011;8501;49.926;8.404;2023-05-10T11:38:54;0.80;;;0.80;;
16766;SDS011;8501;49.926;8.404;2023-05-10T11:41:21;1.65;;;1.00;;
16766;SDS011;8501;49.926;8.404;2023-05-10T11:43:49;1.98;;;1.08;;
16766;SDS011;8501;49.926;8.404;2023-05-10T11:46:17;3.47;;;1.13;;
16766;SDS011;8501;49.926;8.404;2023-05-10T11:48:47;1.17;;;1.08;;
16766;SDS011;8501;49.926;8.404;2023-05-10T11:51:19;1.85;;;1.00;;
16766;SDS011;8501;49.926;8.404;2023-05-10T11:53:45;6.35;;;1.40;;
16766;SDS011;8501;49.926;8.404;2023-05-10T11:56:11;1.42;;;1.00;;
16766;SDS011;8501;49.926;8.404;2023-05-10T11:58:37;1.05;;;0.93;;
16766;SDS011;8501;49.926;8.404;2023-05-10T12:01:10;1.02;;;0.93;;
16766;SDS011;8501;49.926;8.404;2023-05-10T12:03:36;1.48;;;0.80;;
16766;SDS011;8501;49.926;8.404;2023-05-10T12:06:06;1.13;;;1.00;;
16766;SDS011;8501;49.926;8.404;2023-05-10T12:11:35;1.67;;;1.10;;
16766;SDS011;8501;49.926;8.404;2023-05-10T12:14:03;3.33;;;1.17;;
16766;SDS011;8501;49.926;8.404;2023-05-10T12:16:29;1.20;;;1.10;;
16766;SDS011;8501;49.926;8.404;2023-05-10T12:18:56;1.75;;;1.08;;
16766;SDS011;8501;49.926;8.404;2023-05-10T12:21:22;1.52;;;1.13;;
16766;SDS011;8501;49.926;8.404;2023-05-10T12:23:49;2.67;;;1.50;;
16766;SDS011;8501;49.926;8.404;2023-05-10T12:26:16;1.60;;;1.13;;
16766;SDS011;8501;49.926;8.404;2023-05-10T12:28:43;2.17;;;1.20;;
16766;SDS011;8501;49.926;8.404;2023-05-10T12:31:09;2.60;;;1.10;;
16766;SDS011;8501;49.926;8.404;2023-05-10T12:33:38;1.85;;;1.40;;
16766;SDS011;8501;49.926;8.404;2023-05-10T12:36:07;2.17;;;1.30;;
16766;SDS011;8501;49.926;8.404;2023-05-10T12:41:07;2.47;;;1.30;;
16766;SDS011;8501;49.926;8.404;2023-05-10T12:43:34;1.92;;;1.40;;
16766;SDS011;8501;49.926;8.404;2023-05-10T12:46:04;2.45;;;1.40;;
16766;SDS011;8501;49.926;8.404;2023-05-10T12:48:30;3.03;;;1.77;;
16766;SDS011;8501;49.926;8.404;2023-05-10T12:50:56;4.35;;;1.30;;
16766;SDS011;8501;49.926;8.404;2023-05-10T12:53:22;2.92;;;1.40;;
16766;SDS011;8501;49.926;8.404;2023-05-10T12:55:47;2.30;;;1.70;;
16766;SDS011;8501;49.926;8.404;2023-05-10T12:58:13;1.83;;;1.38;;
16766;SDS011;8501;49.926;8.404;2023-05-10T13:00:39;3.78;;;1.58;;
16766;SDS011;8501;49.926;8.404;2023-05-10T13:03:04;2.88;;;1.70;;
16766;SDS011;8501;49.926;8.404;2023-05-10T13:05:33;2.35;;;1.70;;
16766;SDS011;8501;49.926;8.404;2023-05-10T13:07:59;2.28;;;1.30;;
16766;SDS011;8501;49.926;8.404;2023-05-10T13:10:25;1.63;;;1.30;;
16766;SDS011;8501;49.926;8.404;2023-05-10T13:12:51;1.60;;;1.50;;
16766;SDS011;8501;49.926;8.404;2023-05-10T13:15:16;3.60;;;1.60;;
16766;SDS011;8501;49.926;8.404;2023-05-10T13:17:42;1.70;;;1.38;;
16766;SDS011;8501;49.926;8.404;2023-05-10T13:20:08;3.00;;;2.13;;
16766;SDS011;8501;49.926;8.404;2023-05-10T13:22:34;1.90;;;1.70;;
16766;SDS011;8501;49.926;8.404;2023-05-10T13:25:00;4.60;;;1.70;;
16766;SDS011;8501;49.926;8.404;2023-05-10T13:27:26;3.80;;;1.83;;
16766;SDS011;8501;49.926;8.404;2023-05-10T13:29:51;4.35;;;2.25;;
16766;SDS011;8501;49.926;8.404;2023-05-10T13:32:17;3.03;;;1.77;;
16766;SDS011;8501;49.926;8.404;2023-05-10T13:34:43;2.28;;;1.70;;
16766;SDS011;8501;49.926;8.404;2023-05-10T13:37:08;4.55;;;1.88;;
16766;SDS011;8501;49.926;8.404;2023-05-10T13:39:34;3.83;;;1.90;;
16766;SDS011;8501;49.926;8.404;2023-05-10T13:42:02;2.60;;;1.60;;
16766;SDS011;8501;49.926;8.404;2023-05-10T13:44:28;3.03;;;1.60;;
16766;SDS011;8501;49.926;8.404;2023-05-10T13:46:53;2.22;;;1.40;;
16766;SDS011;8501;49.926;8.404;2023-05-10T13:49:19;4.13;;;1.90;;
16766;SDS011;8501;49.926;8.404;2023-05-10T13:51:44;4.35;;;1.80;;
16766;SDS011;8501;49.926;8.404;2023-05-10T13:54:10;3.28;;;1.90;;
16766;SDS011;8501;49.926;8.404;2023-05-10T13:56:35;2.25;;;1.88;;
16766;SDS011;8501;49.926;8.404;2023-05-10T13:59:01;2.25;;;1.42;;
16766;SDS011;8501;49.926;8.404;2023-05-10T14:01:26;1.67;;;1.55;;
16766;SDS011;8501;49.926;8.404;2023-05-10T14:03:52;4.22;;;1.60;;
16766;SDS011;8501;49.926;8.404;2023-05-10T14:06:18;2.65;;;1.50;;
16766;SDS011;8501;49.926;8.404;2023-05-10T14:08:43;2.40;;;1.55;;
16766;SDS011;8501;49.926;8.404;2023-05-10T14:11:09;3.90;;;1.60;;
16766;SDS011;8501;49.926;8.404;2023-05-10T14:13:35;2.70;;;1.60;;
16766;SDS011;8501;49.926;8.404;2023-05-10T14:16:00;2.05;;;1.50;;
16766;SDS011;8501;49.926;8.404;2023-05-10T14:18:29;2.17;;;1.90;;
16766;SDS011;8501;49.926;8.404;2023-05-10T14:20:54;3.95;;;1.65;;
16766;SDS011;8501;49.926;8.404;2023-05-10T14:23:21;2.50;;;1.80;;
16766;SDS011;8501;49.926;8.404;2023-05-10T14:25:51;2.70;;;1.50;;
16766;SDS011;8501;49.926;8.404;2023-05-10T14:28:17;1.80;;;1.30;;
16766;SDS011;8501;49.926;8.404;2023-05-10T14:30:43;3.15;;;1.65;;
16766;SDS011;8501;49.926;8.404;2023-05-10T14:33:09;2.65;;;1.75;;
16766;SDS011;8501;49.926;8.404;2023-05-10T14:35:35;2.63;;;1.70;;
16766;SDS011;8501;49.926;8.404;2023-05-10T14:38:01;2.55;;;1.60;;
16766;SDS011;8501;49.926;8.404;2023-05-10T14:40:28;2.05;;;1.77;;
16766;SDS011;8501;49.926;8.404;2023-05-10T14:42:54;2.75;;;1.70;;
16766;SDS011;8501;49.926;8.404;2023-05-10T14:45:21;3.17;;;1.70;;
16766;SDS011;8501;49.926;8.404;2023-05-10T14:47:47;2.60;;;1.40;;
16766;SDS011;8501;49.926;8.404;2023-05-10T14:50:13;5.38;;;1.70;;
16766;SDS011;8501;49.926;8.404;2023-05-10T14:52:39;2.40;;;1.42;;
16766;SDS011;8501;49.926;8.404;2023-05-10T14:55:04;5.10;;;2.03;;
16766;SDS011;8501;49.926;8.404;2023-05-10T14:57:30;2.85;;;1.40;;
16766;SDS011;8501;49.926;8.404;2023-05-10T14:59:57;1.65;;;1.45;;
16766;SDS011;8501;49.926;8.404;2023-05-10T15:02:22;3.30;;;1.70;;
16766;SDS011;8501;49.926;8.404;2023-05-10T15:04:48;2.95;;;1.60;;
16766;SDS011;8501;49.926;8.404;2023-05-10T15:07:14;3.03;;;1.45;;
16766;SDS011;8501;49.926;8.404;2023-05-10T15:09:41;1.92;;;1.42;;
16766;SDS011;8501;49.926;8.404;2023-05-10T15:12:06;1.60;;;1.30;;
16766;SDS011;8501;49.926;8.404;2023-05-10T15:14:32;2.80;;;1.45;;
16766;SDS011;8501;49.926;8.404;2023-05-10T15:16:58;2.80;;;1.52;;
16766;SDS011;8501;49.926;8.404;2023-05-10T15:19:24;3.70;;;1.88;;